Time;durP1;ratioP1;P1;durP2;ratioP2;P2;SDS_P1;SDS_P2;PMS_P1;PMS_P2;Temp;Humidity;BMP_temperature;BMP_pressure;BME280_temperature;BME280_humidity;BME280_pressure;Samples;Min_cycle;Max_cycle;Signal;HPM_P1;HPM_P2
2020/03/24 00:01:26;;;;;;;13.8;8.1;;;;;;;-2.02;58.42383;948.7484;;;;
2020/03/24 00:03:51;;;;;;;8.8;6;;;;;;;-2.17;59.00098;948.7825;;;;
2020/03/24 00:06:34;;;;;;;7.9;5.8;;;;;;;-2.24;59.64551;948.7742;;;;
2020/03/24 00:09:14;;;;;;;8.4;5.3;;;;;;;-2.21;59.62598;948.786;;;;
2020/03/24 00:11:39;;;;;;;7.6;5.1;;;;;;;-2.25;59.87598;948.7413;;;;
2020/03/24 00:14:12;;;;;;;7.4;4.9;;;;;;;-2.25;60.0752;948.7731;;;;
2020/03/24 00:16:37;;;;;;;7.3;5.1;;;;;;;-2.25;60.38574;948.7628;;;;
2020/03/24 00:19:04;;;;;;;7.8;5.2;;;;;;;-2.23;60.4668;948.7606;;;;
2020/03/24 00:23:55;;;;;;;7;4.8;;;;;;;-2.14;60.14648;948.7432;;;;
2020/03/24 00:29:04;;;;;;;8.7;5.9;;;;;;;-2.22;60.5791;948.7076;;;;
2020/03/24 00:31:32;;;;;;;9.5;5.5;;;;;;;-2.17;60.00977;948.7216;;;;
2020/03/24 00:34:16;;;;;;;8.4;5.7;;;;;;;-2.19;60.0625;948.6297;;;;
2020/03/24 00:36:45;;;;;;;9;6;;;;;;;-2.21;60.12598;948.6101;;;;
2020/03/24 00:39:19;;;;;;;7.7;5;;;;;;;-2.23;60.14551;948.6311;;;;
2020/03/24 00:41:45;;;;;;;8;5.1;;;;;;;-2.24;59.88965;948.6072;;;;
2020/03/24 00:44:11;;;;;;;8.8;5.3;;;;;;;-2.27;60.03809;948.623;;;;
2020/03/24 00:46:39;;;;;;;8.5;5.5;;;;;;;-2.25;60.39648;948.593;;;;
2020/03/24 00:49:04;;;;;;;7.2;5.3;;;;;;;-2.32;60.80859;948.5701;;;;
2020/03/24 00:51:29;;;;;;;7.6;5;;;;;;;-2.29;60.75684;948.5236;;;;
2020/03/24 00:53:54;;;;;;;7.7;5.3;;;;;;;-2.32;60.71973;948.4666;;;;
2020/03/24 00:56:20;;;;;;;6.8;5;;;;;;;-2.32;60.8291;948.4709;;;;
2020/03/24 00:58:45;;;;;;;7.2;4.7;;;;;;;-2.3;60.65527;948.4536;;;;
2020/03/24 01:01:10;;;;;;;9.2;4.8;;;;;;;-2.26;60.08496;948.517;;;;
2020/03/24 01:03:37;;;;;;;6.4;4.6;;;;;;;-2.33;60.05273;948.4972;;;;
2020/03/24 01:06:31;;;;;;;7.2;4.8;;;;;;;-2.37;59.71387;948.5067;;;;
2020/03/24 01:08:56;;;;;;;8.4;4.2;;;;;;;-2.52;59.4834;948.4695;;;;
2020/03/24 01:11:21;;;;;;;7.2;4.7;;;;;;;-2.96;61.00293;948.4615;;;;
2020/03/24 01:13:46;;;;;;;7.5;4.6;;;;;;;-3.06;61.53027;948.4645;;;;
2020/03/24 01:16:12;;;;;;;7.3;4.9;;;;;;;-2.95;61.7793;948.5211;;;;
2020/03/24 01:18:37;;;;;;;7.7;4.7;;;;;;;-2.76;60.86621;948.4918;;;;
2020/03/24 01:21:03;;;;;;;8.9;5;;;;;;;-2.7;60.71875;948.4753;;;;
2020/03/24 01:23:28;;;;;;;6.9;4.6;;;;;;;-2.83;60.67871;948.3979;;;;
2020/03/24 01:25:54;;;;;;;7.5;5;;;;;;;-2.85;61.16113;948.4053;;;;
2020/03/24 01:28:19;;;;;;;6.6;4.7;;;;;;;-2.82;61.71973;948.4788;;;;
2020/03/24 01:30:44;;;;;;;9.1;5.2;;;;;;;-2.85;62.41309;948.4275;;;;
2020/03/24 01:33:09;;;;;;;9;5.5;;;;;;;-3.07;63.48633;948.2991;;;;
2020/03/24 01:35:34;;;;;;;7.2;5.1;;;;;;;-3.21;64.23828;948.4656;;;;
2020/03/24 01:37:59;;;;;;;7.4;5.2;;;;;;;-3.15;64.07129;948.4285;;;;
2020/03/24 01:40:24;;;;;;;7.3;5.3;;;;;;;-3.15;63.97168;948.4363;;;;
2020/03/24 01:42:54;;;;;;;8.9;5;;;;;;;-3.11;63.63477;948.3811;;;;
2020/03/24 01:45:19;;;;;;;8;5.1;;;;;;;-3.08;63.5293;948.4333;;;;
2020/03/24 01:47:44;;;;;;;7.6;5.3;;;;;;;-2.99;63.47559;948.4458;;;;
2020/03/24 01:50:10;;;;;;;7.4;5.1;;;;;;;-2.9;63.11426;948.3857;;;;
2020/03/24 01:52:35;;;;;;;8.7;5;;;;;;;-2.86;63.25098;948.4217;;;;
2020/03/24 01:55:23;;;;;;;6.7;4.9;;;;;;;-2.83;63.13379;948.4084;;;;
2020/03/24 01:57:56;;;;;;;7.2;4.8;;;;;;;-2.78;62.56738;948.3692;;;;
2020/03/24 02:00:21;;;;;;;7.4;5.2;;;;;;;-2.81;62.58496;948.3969;;;;
2020/03/24 02:02:46;;;;;;;7;5;;;;;;;-2.93;62.93164;948.3658;;;;
2020/03/24 02:05:11;;;;;;;6.7;5;;;;;;;-3;63.30957;948.3744;;;;
2020/03/24 02:07:36;;;;;;;7.4;5;;;;;;;-3.02;63.62598;948.3798;;;;
2020/03/24 02:10:03;;;;;;;8.5;5.3;;;;;;;-2.97;63.30176;948.3394;;;;
2020/03/24 02:12:26;;;;;;;8.5;5;;;;;;;-3.07;63.15527;948.3328;;;;
2020/03/24 02:14:51;;;;;;;7.1;4.9;;;;;;;-3.16;63.3623;948.343;;;;
2020/03/24 02:17:17;;;;;;;7.2;4.8;;;;;;;-3.22;63.4082;948.3395;;;;
2020/03/24 02:19:47;;;;;;;8;5;;;;;;;-3.24;63.64746;948.285;;;;
2020/03/24 02:22:12;;;;;;;7.2;5;;;;;;;-3.39;63.87988;948.3102;;;;
2020/03/24 02:24:47;;;;;;;6.3;4.7;;;;;;;-3.37;63.35156;948.3242;;;;
2020/03/24 02:27:15;;;;;;;6.9;5.1;;;;;;;-3.4;63.3252;948.2833;;;;
2020/03/24 02:29:41;;;;;;;6.7;4.7;;;;;;;-3.38;63.00879;948.2886;;;;
2020/03/24 02:32:10;;;;;;;6.2;4.8;;;;;;;-3.39;63.11719;948.3102;;;;
2020/03/24 02:34:35;;;;;;;6.5;4.8;;;;;;;-3.46;63.10742;948.3219;;;;
2020/03/24 02:37:00;;;;;;;8.6;5;;;;;;;-3.77;64.39746;948.3535;;;;
2020/03/24 02:39:33;;;;;;;7.3;4.8;;;;;;;-3.76;64.70605;948.3351;;;;
2020/03/24 02:42:08;;;;;;;6.9;5.1;;;;;;;-3.77;64.98242;948.341;;;;
2020/03/24 02:44:54;;;;;;;7;5.1;;;;;;;-3.77;65.19043;948.2872;;;;
2020/03/24 02:47:21;;;;;;;7.3;4.6;;;;;;;-3.86;65.375;948.2728;;;;
2020/03/24 02:49:51;;;;;;;7.7;4.8;;;;;;;-3.93;65.94922;948.2358;;;;
2020/03/24 02:52:16;;;;;;;7.6;5.3;;;;;;;-3.96;65.91113;948.2523;;;;
2020/03/24 02:54:50;;;;;;;7.7;5.1;;;;;;;-4.07;66.91992;948.2084;;;;
2020/03/24 02:57:16;;;;;;;7.7;5.4;;;;;;;-4.17;67.80859;948.2059;;;;
2020/03/24 02:59:55;;;;;;;9;5.3;;;;;;;-4.1;67.91797;948.2766;;;;
2020/03/24 03:02:34;;;;;;;7.7;5.5;;;;;;;-3.9;66.97949;948.2936;;;;
2020/03/24 03:04:59;;;;;;;7.6;5.3;;;;;;;-4.08;67.58105;948.2988;;;;
2020/03/24 03:07:40;;;;;;;9;5.6;;;;;;;-4;67.5498;948.2533;;;;
2020/03/24 03:10:08;;;;;;;6.4;5.1;;;;;;;-4.06;67.77148;948.1155;;;;
2020/03/24 03:12:42;;;;;;;10.3;5.6;;;;;;;-3.98;67.86035;948.1932;;;;
2020/03/24 03:15:18;;;;;;;9.8;6;;;;;;;-3.94;67.38184;948.2536;;;;
2020/03/24 03:17:51;;;;;;;6.9;5.2;;;;;;;-3.93;67.35059;948.2159;;;;
2020/03/24 03:20:26;;;;;;;6.6;5.1;;;;;;;-3.9;66.70508;948.1685;;;;
2020/03/24 03:22:51;;;;;;;6.9;5.3;;;;;;;-3.96;66.7832;948.1506;;;;
2020/03/24 03:25:16;;;;;;;7.8;5.4;;;;;;;-4.01;66.74121;948.0723;;;;
2020/03/24 03:27:53;;;;;;;9.2;5.9;;;;;;;-4.01;66.75195;948.0496;;;;
2020/03/24 03:30:33;;;;;;;8.5;5.6;;;;;;;-4.18;67.27637;948.1482;;;;
2020/03/24 03:32:59;;;;;;;9.1;5.7;;;;;;;-4.21;67.4375;948.0513;;;;
2020/03/24 03:35:31;;;;;;;8.7;5.8;;;;;;;-4.16;67.43555;948.0451;;;;
2020/03/24 03:37:56;;;;;;;9.2;5.8;;;;;;;-4.15;67.25977;948.053;;;;
2020/03/24 03:40:38;;;;;;;10.5;6.5;;;;;;;-4.06;66.83301;948.0408;;;;
2020/03/24 03:43:17;;;;;;;9.4;5.8;;;;;;;-4.13;67.04297;948.0288;;;;
2020/03/24 03:45:45;;;;;;;9.2;6;;;;;;;-4.07;66.97559;948.0457;;;;
2020/03/24 03:48:10;;;;;;;7.4;5.7;;;;;;;-4.22;67.4707;948.0471;;;;
2020/03/24 03:50:44;;;;;;;8.9;5.8;;;;;;;-4.22;67.81055;948.0606;;;;
2020/03/24 03:53:11;;;;;;;9.1;5.6;;;;;;;-4.26;68.01465;948.0693;;;;
2020/03/24 03:55:37;;;;;;;9.3;6.3;;;;;;;-4.42;68.72656;948.1119;;;;
2020/03/24 03:58:02;;;;;;;8.9;6;;;;;;;-4.37;68.74512;948.1309;;;;
2020/03/24 04:02:48;;;;;;;9.9;6;;;;;;;-4.65;69.85742;948.0211;;;;
2020/03/24 04:05:13;;;;;;;7.9;5.6;;;;;;;-4.62;69.66309;948.0977;;;;
2020/03/24 04:07:51;;;;;;;10.5;6.2;;;;;;;-4.78;70.39648;947.9622;;;;
2020/03/24 04:10:16;;;;;;;8.8;6.1;;;;;;;-4.95;71.65723;948.0212;;;;
2020/03/24 04:12:51;;;;;;;8.1;5.5;;;;;;;-4.97;71.78613;947.9739;;;;
2020/03/24 04:15:16;;;;;;;9.5;6;;;;;;;-4.87;71.63672;947.9222;;;;
2020/03/24 04:18:06;;;;;;;8.8;6;;;;;;;-4.82;71.25977;948.0403;;;;
2020/03/24 04:20:32;;;;;;;8.9;6;;;;;;;-4.83;71.43457;948.0545;;;;
2020/03/24 04:23:11;;;;;;;7.4;5.6;;;;;;;-4.96;71.63184;948.0551;;;;
2020/03/24 04:25:36;;;;;;;11.3;6.6;;;;;;;-5;72.09766;947.9498;;;;
2020/03/24 04:28:26;;;;;;;11.1;6.4;;;;;;;-4.91;71.74023;948.0059;;;;
2020/03/24 04:30:56;;;;;;;8.3;5.8;;;;;;;-4.98;71.96973;947.9664;;;;
2020/03/24 04:33:21;;;;;;;9.4;6.1;;;;;;;-4.98;72.05762;948.0094;;;;
2020/03/24 04:35:48;;;;;;;9.7;6.3;;;;;;;-4.88;71.68945;947.9556;;;;
2020/03/24 04:38:14;;;;;;;10.2;6.4;;;;;;;-4.65;70.99219;947.9611;;;;
2020/03/24 04:40:41;;;;;;;10.5;7.1;;;;;;;-4.52;70.49609;948.04;;;;
2020/03/24 04:43:22;;;;;;;11.1;7.5;;;;;;;-4.41;69.8418;948.0126;;;;
2020/03/24 04:46:04;;;;;;;11.9;7.5;;;;;;;-4.3;69.27539;947.9619;;;;
2020/03/24 04:48:29;;;;;;;11.4;7.7;;;;;;;-4.42;69.31055;948.0535;;;;
2020/03/24 04:51:02;;;;;;;10.6;6.9;;;;;;;-4.67;70.2168;948.0082;;;;
2020/03/24 04:53:52;;;;;;;10.9;6.9;;;;;;;-4.9;70.84863;947.9892;;;;
2020/03/24 04:56:36;;;;;;;9.2;6.5;;;;;;;-4.95;71.18359;947.9973;;;;
2020/03/24 04:59:17;;;;;;;17.7;6.8;;;;;;;-4.88;70.8418;947.9509;;;;
2020/03/24 05:01:42;;;;;;;15.8;6.7;;;;;;;-4.75;70.37891;948.0119;;;;
2020/03/24 05:04:07;;;;;;;12.1;6.3;;;;;;;-4.91;70.84863;948.0019;;;;
2020/03/24 05:06:50;;;;;;;9.9;6.5;;;;;;;-4.96;71.30176;947.9966;;;;
2020/03/24 05:09:27;;;;;;;9.3;6.5;;;;;;;-5.1;71.7832;948.0492;;;;
2020/03/24 05:12:04;;;;;;;8.9;6.1;;;;;;;-5.2;72.1748;948.0686;;;;
2020/03/24 05:14:30;;;;;;;7.2;5;;;;;;;-5.2;71.75684;948.0066;;;;
2020/03/24 05:16:55;;;;;;;11.4;5.5;;;;;;;-5.25;71.74902;948.0278;;;;
2020/03/24 05:19:30;;;;;;;16.4;6.7;;;;;;;-5.19;71.46094;948.0768;;;;
2020/03/24 05:22:03;;;;;;;7.6;5.3;;;;;;;-5.27;71.41406;948.1049;;;;
2020/03/24 05:24:49;;;;;;;10.3;5.2;;;;;;;-5.14;71.29297;948.0516;;;;
2020/03/24 05:27:35;;;;;;;10.5;6.8;;;;;;;-5.12;73.55176;948.0911;;;;
2020/03/24 05:30:00;;;;;;;16.1;7.3;;;;;;;-5.07;73.29688;948.1314;;;;
2020/03/24 05:32:26;;;;;;;13.3;7.2;;;;;;;-4.91;72.3125;948.1487;;;;
2020/03/24 05:35:15;;;;;;;10.7;6.5;;;;;;;-4.69;70.79688;948.1577;;;;
2020/03/24 05:37:44;;;;;;;18;7.3;;;;;;;-4.56;70.15723;948.144;;;;
2020/03/24 05:40:33;;;;;;;14.9;8.2;;;;;;;-4.83;70.60938;948.1566;;;;
2020/03/24 05:42:58;;;;;;;16.3;8.1;;;;;;;-4.82;70.81836;948.1699;;;;
2020/03/24 05:45:37;;;;;;;18.8;8.8;;;;;;;-4.67;70.26074;948.1863;;;;
2020/03/24 05:48:09;;;;;;;14.9;7.6;;;;;;;-4.69;70.16797;948.1774;;;;
2020/03/24 05:50:48;;;;;;;15.6;7.9;;;;;;;-4.84;70.5293;948.1838;;;;
2020/03/24 05:53:24;;;;;;;16.5;9.3;;;;;;;-4.84;70.69434;948.1688;;;;
2020/03/24 05:55:49;;;;;;;12.8;8.2;;;;;;;-4.58;70.37598;948.1516;;;;
2020/03/24 05:58:28;;;;;;;19.1;8.1;;;;;;;-3.91;68.2373;948.1873;;;;
2020/03/24 06:01:07;;;;;;;14;7.9;;;;;;;-3.29;65.29785;948.1908;;;;
2020/03/24 06:03:37;;;;;;;14.6;8.9;;;;;;;-2.99;63.9082;948.1133;;;;
2020/03/24 06:06:06;;;;;;;18.8;9.6;;;;;;;-2.7;63.50977;948.0906;;;;
2020/03/24 06:08:53;;;;;;;16.7;9.9;;;;;;;-1.89;60.06152;948.0667;;;;
2020/03/24 06:11:28;;;;;;;20.4;9.9;;;;;;;-0.7;56.97266;948.046;;;;
2020/03/24 06:13:53;;;;;;;19.6;9.6;;;;;;;0.5;52.94141;948.0314;;;;
2020/03/24 06:16:30;;;;;;;16.3;8.4;;;;;;;1.24;50.0625;947.9536;;;;
2020/03/24 06:18:55;;;;;;;16;8;;;;;;;2.04;48.07422;947.8834;;;;
2020/03/24 06:21:29;;;;;;;12.5;6.2;;;;;;;1.42;48.41797;947.9316;;;;
2020/03/24 06:24:19;;;;;;;13.4;6.8;;;;;;;2.27;47.25;947.8812;;;;
2020/03/24 06:26:58;;;;;;;10.9;6.7;;;;;;;2.2;46.53613;947.8389;;;;
2020/03/24 06:29:31;;;;;;;9.3;5.4;;;;;;;1.65;46.86719;947.8755;;;;
2020/03/24 06:32:11;;;;;;;8.1;4.9;;;;;;;1.43;47.86035;947.8427;;;;
2020/03/24 06:34:39;;;;;;;8.2;4.6;;;;;;;1.29;48.96289;947.8603;;;;
2020/03/24 06:37:25;;;;;;;9.6;5;;;;;;;1.97;47.95508;947.8094;;;;
2020/03/24 06:39:49;;;;;;;7.8;4.3;;;;;;;3.01;44.77441;947.7786;;;;
2020/03/24 06:42:31;;;;;;;9.2;4.5;;;;;;;3.37;43.53223;947.7606;;;;
2020/03/24 06:45:17;;;;;;;6.5;4.8;;;;;;;3.8;42.41797;947.7585;;;;
2020/03/24 06:47:43;;;;;;;8.2;3.9;;;;;;;4.84;40.29102;947.7137;;;;
2020/03/24 06:50:08;;;;;;;6.9;3.8;;;;;;;5.67;38.37109;947.6445;;;;
2020/03/24 06:52:50;;;;;;;7.5;4;;;;;;;4.83;39.25391;947.6691;;;;
2020/03/24 06:55:17;;;;;;;12.5;4.4;;;;;;;4.41;39.93555;947.7286;;;;
2020/03/24 06:57:50;;;;;;;9.1;3.9;;;;;;;4.02;40.5957;947.6738;;;;
2020/03/24 07:00:21;;;;;;;6;3.9;;;;;;;4.18;39.50879;947.673;;;;
2020/03/24 07:03:05;;;;;;;6.2;3.8;;;;;;;4.12;39.60449;947.6348;;;;
2020/03/24 07:05:50;;;;;;;7.4;3.8;;;;;;;3.81;39.92383;947.616;;;;
2020/03/24 07:08:26;;;;;;;6.4;3.9;;;;;;;4.32;39.84863;947.5413;;;;
2020/03/24 07:11:01;;;;;;;7.9;3.7;;;;;;;4.91;37.16504;947.5002;;;;
2020/03/24 07:13:27;;;;;;;8;3.7;;;;;;;5.32;36.64746;947.4747;;;;
2020/03/24 07:15:59;;;;;;;5.9;3.6;;;;;;;4.82;37.4502;947.4944;;;;
2020/03/24 07:18:39;;;;;;;4.9;3.2;;;;;;;4.4;36.68164;947.437;;;;
2020/03/24 07:21:21;;;;;;;5.1;3.7;;;;;;;5.24;35.98633;947.4498;;;;
2020/03/24 07:23:57;;;;;;;6.1;3.4;;;;;;;4.67;36.81836;947.4472;;;;
2020/03/24 07:26:38;;;;;;;5.5;3.1;;;;;;;5.82;35.3584;947.4219;;;;
2020/03/24 07:29:19;;;;;;;5.2;3.3;;;;;;;6.47;34.72266;947.3934;;;;
2020/03/24 07:31:48;;;;;;;5.4;2.9;;;;;;;6.12;31.9707;947.3884;;;;
2020/03/24 07:34:32;;;;;;;5;3.1;;;;;;;6.14;34.58203;947.4174;;;;
2020/03/24 07:37:14;;;;;;;5.8;3.4;;;;;;;6.09;32.08105;947.4291;;;;
2020/03/24 07:39:57;;;;;;;7.7;3.5;;;;;;;5.56;33.1709;947.4691;;;;
2020/03/24 07:42:22;;;;;;;5.6;3.2;;;;;;;6.73;31.02051;947.4601;;;;
2020/03/24 07:45:03;;;;;;;6.6;3.4;;;;;;;6.84;31.82031;947.4338;;;;
2020/03/24 07:47:30;;;;;;;5;3.1;;;;;;;8.93;29.5752;947.4098;;;;
2020/03/24 07:50:20;;;;;;;4.8;2.6;;;;;;;11.77;25.12109;947.3269;;;;
2020/03/24 07:52:45;;;;;;;7.1;3.3;;;;;;;10.19;25.06445;947.2597;;;;
2020/03/24 07:55:26;;;;;;;9.9;3.3;;;;;;;11.51;23.81348;947.245;;;;
2020/03/24 07:57:47;;;;;;;7.8;3.2;;;;;;;10.95;26.86816;947.2904;;;;
2020/03/24 08:00:22;;;;;;;8;3.5;;;;;;;12.83;25.65332;947.2481;;;;
2020/03/24 08:02:51;;;;;;;7.3;3.9;;;;;;;13.18;25.30664;947.2778;;;;
2020/03/24 08:05:26;;;;;;;7.4;3.9;;;;;;;13.71;25.24512;947.2367;;;;
2020/03/24 08:08:16;;;;;;;10.7;4.6;;;;;;;13.87;25.74902;947.1836;;;;
2020/03/24 08:10:41;;;;;;;8.9;4.3;;;;;;;13.46;26.00098;947.2383;;;;
2020/03/24 08:13:06;;;;;;;7.9;3.5;;;;;;;12.51;26.15039;947.1755;;;;
2020/03/24 08:15:31;;;;;;;5.4;3.1;;;;;;;12.55;24.92578;947.2528;;;;
2020/03/24 08:17:56;;;;;;;6.1;3.3;;;;;;;11.89;25.78125;947.3258;;;;
2020/03/24 08:20:22;;;;;;;6;3.3;;;;;;;11.93;25.46289;947.2586;;;;
2020/03/24 08:23:03;;;;;;;4.4;2.9;;;;;;;11.94;26.02441;947.3052;;;;
2020/03/24 08:25:28;;;;;;;5.9;2.9;;;;;;;13.05;23.9209;947.2629;;;;
2020/03/24 08:27:53;;;;;;;5.2;2.8;;;;;;;13.49;24.15137;947.2073;;;;
2020/03/24 08:30:18;;;;;;;3.9;2.6;;;;;;;13.47;22.62109;947.2086;;;;
2020/03/24 08:32:43;;;;;;;4.3;2.9;;;;;;;14.26;22.01855;947.197;;;;
2020/03/24 08:35:09;;;;;;;5.1;3;;;;;;;14.04;22.99707;947.1984;;;;
2020/03/24 08:37:33;;;;;;;10.6;5.3;;;;;;;15.54;20.77832;947.2138;;;;
2020/03/24 08:39:58;;;;;;;4.3;2.8;;;;;;;15.25;20.44043;947.2377;;;;
2020/03/24 08:42:25;;;;;;;6.4;2.9;;;;;;;16.07;19.82031;947.1688;;;;
2020/03/24 08:44:50;;;;;;;3.8;2.6;;;;;;;16.26;19.42383;947.1519;;;;
2020/03/24 08:47:15;;;;;;;3.6;2.7;;;;;;;16.41;19.31543;947.0652;;;;
2020/03/24 08:49:40;;;;;;;6.3;2.9;;;;;;;15.98;19.73438;947.0581;;;;
2020/03/24 08:52:05;;;;;;;5.6;2.8;;;;;;;15.74;20.56738;947.0442;;;;
2020/03/24 08:54:30;;;;;;;3.5;2.6;;;;;;;16.76;19.53906;946.9915;;;;
2020/03/24 08:56:55;;;;;;;5.4;3;;;;;;;16.1;19.63672;947.0122;;;;
2020/03/24 08:59:20;;;;;;;4.3;2.8;;;;;;;15.58;19.77441;947.0639;;;;
2020/03/24 09:01:46;;;;;;;5.6;2.7;;;;;;;15.55;20.89355;947.0413;;;;
2020/03/24 09:04:11;;;;;;;5.2;2.9;;;;;;;14.88;21.69141;947.0639;;;;
2020/03/24 09:06:36;;;;;;;4.4;2.8;;;;;;;14.29;22.22656;947.0499;;;;
2020/03/24 09:09:01;;;;;;;3.5;2.9;;;;;;;13.65;22.64258;946.9927;;;;
2020/03/24 09:11:26;;;;;;;4.5;3.2;;;;;;;12.54;24.86816;946.9617;;;;
2020/03/24 09:13:51;;;;;;;6.1;3;;;;;;;12.74;23.91504;947.0411;;;;
2020/03/24 09:16:16;;;;;;;3.6;2.7;;;;;;;13.32;23.39551;946.981;;;;
2020/03/24 09:18:41;;;;;;;5.1;2.9;;;;;;;13.9;23.69141;946.9373;;;;
2020/03/24 09:21:06;;;;;;;5;3.1;;;;;;;13.83;22.45703;946.8918;;;;
2020/03/24 09:23:32;;;;;;;4.6;3;;;;;;;12.85;24.21973;946.9856;;;;
2020/03/24 09:25:57;;;;;;;4.8;3.3;;;;;;;12.33;24.73047;946.8983;;;;
2020/03/24 09:28:22;;;;;;;4.9;3.5;;;;;;;12.4;25.08887;946.905;;;;
2020/03/24 09:30:47;;;;;;;6;3.7;;;;;;;11.15;28.38965;946.918;;;;
2020/03/24 09:33:12;;;;;;;6.2;3.9;;;;;;;10.8;27.75;946.9306;;;;
2020/03/24 09:35:37;;;;;;;5.3;3.7;;;;;;;10.66;28.5752;946.8572;;;;
2020/03/24 09:38:02;;;;;;;7.5;4;;;;;;;10.26;28.45703;946.7263;;;;
2020/03/24 09:40:27;;;;;;;6.8;4.1;;;;;;;10.21;29.29785;946.7463;;;;
2020/03/24 09:42:52;;;;;;;7.3;4.1;;;;;;;10.36;28.94336;946.7662;;;;
2020/03/24 09:45:17;;;;;;;7;4.3;;;;;;;10.4;29.74414;946.7017;;;;
2020/03/24 09:47:43;;;;;;;6.7;4.3;;;;;;;9.92;29.34668;946.7297;;;;
2020/03/24 09:50:08;;;;;;;5.3;4.2;;;;;;;9.25;31.6123;946.6276;;;;
2020/03/24 09:52:37;;;;;;;7;4.2;;;;;;;9.27;31.61328;946.6497;;;;
2020/03/24 09:55:02;;;;;;;6.6;4.6;;;;;;;8.99;32.83301;946.6857;;;;
2020/03/24 09:57:28;;;;;;;8.4;4.5;;;;;;;9.36;32.32617;946.7555;;;;
2020/03/24 09:59:53;;;;;;;7;4.6;;;;;;;9.1;33.1377;946.7321;;;;
2020/03/24 10:02:18;;;;;;;7.9;4.8;;;;;;;8.9;31.68848;946.6283;;;;
2020/03/24 10:04:43;;;;;;;6.9;4.9;;;;;;;8.36;32.89941;946.6827;;;;
2020/03/24 10:07:08;;;;;;;8.5;4.8;;;;;;;8.46;33.33887;946.6218;;;;
2020/03/24 10:09:34;;;;;;;8.6;4.7;;;;;;;8.89;32.80273;946.5144;;;;
2020/03/24 10:11:59;;;;;;;6.8;4.5;;;;;;;9;32.77734;946.5645;;;;
2020/03/24 10:14:24;;;;;;;9.2;4.9;;;;;;;8.69;33.99316;946.4186;;;;
2020/03/24 10:16:50;;;;;;;10.3;4.9;;;;;;;8.99;32.30957;946.6086;;;;
2020/03/24 10:19:15;;;;;;;7.9;4.6;;;;;;;9.65;32.26758;946.5411;;;;
2020/03/24 10:21:42;;;;;;;6.2;4.5;;;;;;;10.15;30.38965;946.4222;;;;
2020/03/24 10:24:07;;;;;;;7.2;5.1;;;;;;;9.37;31.55273;946.3647;;;;
2020/03/24 10:26:32;;;;;;;7.2;4.7;;;;;;;9.38;32.71484;946.2997;;;;
2020/03/24 10:28:57;;;;;;;7.8;4.6;;;;;;;9.24;31.28125;946.2706;;;;
2020/03/24 10:31:23;;;;;;;6.9;4.9;;;;;;;9.42;30.42871;946.2964;;;;
2020/03/24 10:33:47;;;;;;;7.8;4.8;;;;;;;9.51;30.76563;946.1835;;;;
2020/03/24 10:36:13;;;;;;;6.4;4.6;;;;;;;9.6;32.59473;946.2692;;;;
2020/03/24 10:38:38;;;;;;;6.8;4.6;;;;;;;9.93;30.3623;946.2017;;;;
2020/03/24 10:41:03;;;;;;;6.8;4.8;;;;;;;9.85;29.70703;946.2324;;;;
2020/03/24 10:43:28;;;;;;;6.3;4.7;;;;;;;10.41;29.88184;946.2079;;;;
2020/03/24 10:45:53;;;;;;;7;4.7;;;;;;;9.65;31.19629;946.0981;;;;
2020/03/24 10:48:19;;;;;;;9.3;4.9;;;;;;;9.7;31.56445;946.1512;;;;
2020/03/24 10:50:44;;;;;;;7.1;4.7;;;;;;;10.85;29.23828;946.1614;;;;
2020/03/24 10:53:08;;;;;;;8;4.6;;;;;;;11.07;28.32715;946.0922;;;;
2020/03/24 10:55:33;;;;;;;11;5;;;;;;;11.53;27.14453;946.1415;;;;
2020/03/24 10:57:58;;;;;;;6.7;4.8;;;;;;;10.82;28.95117;946.2;;;;
2020/03/24 11:00:23;;;;;;;8.6;4.8;;;;;;;11.76;27.12402;946.0421;;;;
2020/03/24 11:02:58;;;;;;;9;4.8;;;;;;;12.22;26.72852;946.1401;;;;
2020/03/24 11:05:38;;;;;;;7.3;5.1;;;;;;;11.56;27.6377;946.1356;;;;
2020/03/24 11:08:10;;;;;;;8.7;5.2;;;;;;;12.12;26.78027;945.9899;;;;
2020/03/24 11:10:41;;;;;;;7.1;5.1;;;;;;;12.1;27.09961;946.0095;;;;
2020/03/24 11:13:06;;;;;;;8.1;5.3;;;;;;;11.01;27.90039;945.9758;;;;
2020/03/24 11:15:48;;;;;;;9.4;5.3;;;;;;;10.21;30.54199;946.0331;;;;
2020/03/24 11:18:13;;;;;;;9.4;5.5;;;;;;;11.29;28.71973;946.0003;;;;
2020/03/24 11:20:38;;;;;;;7.6;4.8;;;;;;;13.01;25.64063;945.8987;;;;
2020/03/24 11:23:03;;;;;;;8;4.9;;;;;;;12.29;26.90625;945.9392;;;;
2020/03/24 11:25:28;;;;;;;8.1;5.1;;;;;;;11.7;27.17773;945.8567;;;;
2020/03/24 11:27:54;;;;;;;7.7;5.4;;;;;;;12.77;25.90234;945.9691;;;;
2020/03/24 11:30:18;;;;;;;7.5;5.1;;;;;;;13.08;26.24219;945.8865;;;;
2020/03/24 11:32:44;;;;;;;9.3;5.4;;;;;;;11.8;27.81445;945.9393;;;;
2020/03/24 11:35:09;;;;;;;9.2;5.5;;;;;;;12.67;25.94238;945.7879;;;;
2020/03/24 11:37:34;;;;;;;8.5;5.5;;;;;;;13.24;25.28711;945.8458;;;;
2020/03/24 11:39:59;;;;;;;8.7;5.3;;;;;;;13.12;25.99219;945.7006;;;;
2020/03/24 11:42:24;;;;;;;9.7;5.5;;;;;;;11.78;27.43457;945.7855;;;;
2020/03/24 11:44:49;;;;;;;9.3;5.6;;;;;;;12.06;27.96875;945.7263;;;;
2020/03/24 11:47:28;;;;;;;8.8;5.6;;;;;;;13.52;26.16504;945.6889;;;;
2020/03/24 11:49:52;;;;;;;8.5;5.5;;;;;;;14.17;24.02832;945.5682;;;;
2020/03/24 11:52:18;;;;;;;9.5;5.8;;;;;;;13.11;27.16309;945.6389;;;;
2020/03/24 11:54:43;;;;;;;9.3;5.6;;;;;;;13.83;24.95313;945.5483;;;;
2020/03/24 11:57:08;;;;;;;8.7;6;;;;;;;14.88;24.11426;945.4633;;;;
2020/03/24 11:59:33;;;;;;;18.3;5.5;;;;;;;13.16;26.07422;945.5435;;;;
2020/03/24 12:01:58;;;;;;;7.2;5.4;;;;;;;13.09;26.05957;945.5028;;;;
2020/03/24 12:04:23;;;;;;;7.8;5.5;;;;;;;12.57;26.65918;945.6385;;;;
2020/03/24 12:06:49;;;;;;;10.2;6.4;;;;;;;13.03;26.21582;945.6116;;;;
2020/03/24 12:09:13;;;;;;;9.7;5.8;;;;;;;12.55;27.09375;945.6373;;;;
2020/03/24 12:11:40;;;;;;;9;5.9;;;;;;;13.87;26.25488;945.6705;;;;
2020/03/24 12:14:05;;;;;;;9;5.9;;;;;;;13.58;26.2041;945.5839;;;;
2020/03/24 12:16:30;;;;;;;10;6;;;;;;;14.54;24.41699;945.7302;;;;
2020/03/24 12:18:55;;;;;;;10.1;6;;;;;;;14.63;23.98438;945.6003;;;;
2020/03/24 12:21:20;;;;;;;8.9;5.6;;;;;;;15.53;22.33594;945.5801;;;;
2020/03/24 12:23:53;;;;;;;9;6.1;;;;;;;14.51;24.55371;945.5545;;;;
2020/03/24 12:26:18;;;;;;;9.2;5.9;;;;;;;14.17;24.62695;945.7276;;;;
2020/03/24 12:28:43;;;;;;;8.7;6.3;;;;;;;14.36;24.0957;945.6202;;;;
2020/03/24 12:31:09;;;;;;;8.6;6.1;;;;;;;14.12;24.87793;945.5919;;;;
2020/03/24 12:33:34;;;;;;;10.5;6.2;;;;;;;14.92;22.97461;945.4266;;;;
2020/03/24 12:35:59;;;;;;;10.4;6.3;;;;;;;15.31;22.05957;945.4381;;;;
2020/03/24 12:38:25;;;;;;;8.4;6.3;;;;;;;15.93;22.40332;945.4338;;;;
2020/03/24 12:41:08;;;;;;;8.2;6;;;;;;;14.3;24.62305;945.5005;;;;
2020/03/24 12:43:49;;;;;;;9.1;6.7;;;;;;;14;24.61719;945.4633;;;;
2020/03/24 12:46:19;;;;;;;9.9;6.2;;;;;;;15.74;22.77441;945.48;;;;
2020/03/24 12:48:41;;;;;;;8.9;6.3;;;;;;;13.86;25.13867;945.4261;;;;
2020/03/24 12:51:07;;;;;;;8.2;6.3;;;;;;;12.71;26.01367;945.4576;;;;
2020/03/24 12:53:30;;;;;;;9;6.6;;;;;;;13.47;25.05859;945.4917;;;;
2020/03/24 12:56:15;;;;;;;9.5;6.4;;;;;;;12.45;25.90625;945.4411;;;;
2020/03/24 13:00:46;;;;;;;9.8;6.6;;;;;;;14.73;24.34766;945.5488;;;;
2020/03/24 13:03:10;;;;;;;9.5;6.4;;;;;;;15.91;22.50586;945.4788;;;;
2020/03/24 13:06:01;;;;;;;11.1;6.6;;;;;;;16.06;23.06836;945.4509;;;;
2020/03/24 13:11:08;;;;;;;9.7;6.8;;;;;;;13.89;24.58887;945.5921;;;;
2020/03/24 13:13:30;;;;;;;9.5;6.7;;;;;;;14.55;24.22168;945.5122;;;;
2020/03/24 13:15:55;;;;;;;9.9;6.6;;;;;;;12.75;26.83105;945.5237;;;;
2020/03/24 13:18:21;;;;;;;13.2;7;;;;;;;12.41;26.76367;945.4188;;;;
2020/03/24 13:20:46;;;;;;;11.9;7.4;;;;;;;11.35;29.91309;945.48;;;;
2020/03/24 13:23:20;;;;;;;10.8;7.2;;;;;;;12.88;26.4375;945.4225;;;;
2020/03/24 13:25:46;;;;;;;10.6;6.5;;;;;;;13.91;24.09473;945.3914;;;;
2020/03/24 13:28:22;;;;;;;11.1;6.7;;;;;;;13.59;24.7207;945.4048;;;;
2020/03/24 13:30:47;;;;;;;9.1;7.1;;;;;;;13.5;24.99121;945.3015;;;;
2020/03/24 13:33:22;;;;;;;11.9;7.3;;;;;;;12.08;27.30469;945.2548;;;;
2020/03/24 13:35:52;;;;;;;11.3;7.2;;;;;;;12.85;26.96387;945.2847;;;;
2020/03/24 13:38:17;;;;;;;12.4;7.1;;;;;;;13.87;24.97852;945.2244;;;;
2020/03/24 13:40:42;;;;;;;9.7;6.8;;;;;;;13.42;25.86035;945.2592;;;;
2020/03/24 13:43:22;;;;;;;11.6;7;;;;;;;13.61;25.06738;945.293;;;;
2020/03/24 13:46:09;;;;;;;11.9;7.3;;;;;;;11.38;28.79395;945.3633;;;;
2020/03/24 13:48:51;;;;;;;9.5;6.8;;;;;;;11.59;28.61328;945.2411;;;;
2020/03/24 13:51:16;;;;;;;12.3;7.5;;;;;;;11.65;27.81641;945.1794;;;;
2020/03/24 13:53:50;;;;;;;10.3;7.7;;;;;;;10.17;31.08691;945.3156;;;;
2020/03/24 13:56:15;;;;;;;9;6.9;;;;;;;10.35;30.87109;945.1936;;;;
2020/03/24 13:58:40;;;;;;;11.1;7.6;;;;;;;10.43;30.95703;945.3421;;;;
2020/03/24 14:01:10;;;;;;;11.4;7.1;;;;;;;11.47;28.86914;945.1322;;;;
2020/03/24 14:03:36;;;;;;;12.1;7.5;;;;;;;10.44;29.97559;945.1815;;;;
2020/03/24 14:06:03;;;;;;;10.7;7.4;;;;;;;9.41;31.63574;945.0991;;;;
2020/03/24 14:08:26;;;;;;;9.3;7;;;;;;;10.55;30.14258;945.0873;;;;
2020/03/24 14:10:51;;;;;;;11.3;7.5;;;;;;;10.11;31.80078;945.1616;;;;
2020/03/24 14:13:16;;;;;;;10.2;7.2;;;;;;;10.88;29.60645;945.0683;;;;
2020/03/24 14:15:42;;;;;;;14.7;7.9;;;;;;;11.5;28.27539;945.045;;;;
2020/03/24 14:18:07;;;;;;;11.3;7.5;;;;;;;11.32;28.88184;945.0394;;;;
2020/03/24 14:20:32;;;;;;;11.7;8;;;;;;;10.98;31.39648;944.9267;;;;
2020/03/24 14:22:57;;;;;;;10.6;8;;;;;;;8.98;31.8877;945.0934;;;;
2020/03/24 14:25:24;;;;;;;10.8;7.8;;;;;;;8.61;33.08887;944.9595;;;;
2020/03/24 14:27:47;;;;;;;11.3;8;;;;;;;8.47;32.94141;944.9568;;;;
2020/03/24 14:30:12;;;;;;;11.2;8;;;;;;;8.24;34.45703;944.8832;;;;
2020/03/24 14:32:37;;;;;;;10.5;7.7;;;;;;;7.26;35.89648;944.7954;;;;
2020/03/24 14:35:02;;;;;;;12.8;8.4;;;;;;;6.67;37.7373;944.9057;;;;
2020/03/24 14:37:28;;;;;;;12.4;8.5;;;;;;;6.73;37.79883;944.9978;;;;
2020/03/24 14:40:01;;;;;;;12.6;8.1;;;;;;;6.78;36.91992;944.9441;;;;
2020/03/24 14:42:18;;;;;;;12.2;8.4;;;;;;;6.98;37.19824;944.8777;;;;
2020/03/24 14:44:43;;;;;;;11.3;8.6;;;;;;;7.05;37.2832;944.8074;;;;
2020/03/24 14:47:08;;;;;;;15.6;8.8;;;;;;;6.77;36.89648;944.8481;;;;
2020/03/24 14:49:35;;;;;;;14.2;8.9;;;;;;;6.7;37.58203;944.8403;;;;
2020/03/24 14:52:00;;;;;;;13.1;8.8;;;;;;;6.85;37.67383;944.8074;;;;